3I7 weather

Dayton-Phillipsburg Airport
Phillipsburg, Ohio, United States

Public forecast

Using degrees Fahrenheit for public forecast. Weather courtesy of forecast.io.

METAR (pilot weather report)

Closest report is James M Cox Dayton International Airport, 8.4 nm (15.5 km) E. Retrieved 2019/05/21 15:56 UTC (6 minutes ago):

KDAY 211556Z 09014KT 10SM SCT130 BKN150 14/04 A3013 RMK AO2 SLP203 T01440039

TAF (pilot weather forecast)

Closest forecast is James M Cox Dayton International Airport, 8.4 nm (15.5 km) E. Retrieved 2019/05/21 12:30 UTC (4 hours ago):

TAF KDAY 211129Z 2112/2212 07008KT P6SM BKN150 FM211600 08010KT P6SM BKN070 FM220000 09010KT P6SM FEW080 FM220900 11009KT P6SM SCT060 BKN200